createdAt,value
2023-03-01T04:47:13.728Z,663.08
2023-03-01T04:49:40.367Z,662.40
2023-03-01T04:52:06.993Z,664.25
2023-03-01T04:54:34.747Z,663.50
2023-03-01T04:57:02.528Z,666.30
2023-03-01T04:59:30.101Z,666.55
2023-03-01T05:01:57.512Z,663.15
2023-03-01T05:04:26.034Z,663.67
2023-03-01T05:06:54.787Z,661.10
2023-03-01T05:09:21.455Z,660.70
2023-03-01T05:11:48.136Z,662.42
2023-03-01T05:14:14.822Z,663.67
2023-03-01T05:16:41.507Z,664.97
2023-03-01T05:19:16.610Z,656.97
2023-03-01T05:22:02.658Z,658.00
2023-03-01T05:24:31.480Z,663.13
2023-03-01T05:26:58.367Z,663.97
2023-03-01T05:29:26.667Z,661.30
2023-03-01T05:31:59.394Z,663.83
2023-03-01T05:34:36.813Z,661.25
2023-03-01T05:37:03.500Z,657.73
2023-03-01T05:39:30.966Z,660.95
2023-03-01T05:41:59.801Z,663.90
2023-03-01T05:44:27.905Z,666.92
2023-03-01T05:46:54.800Z,662.97
2023-03-01T05:49:24.828Z,664.40
2023-03-01T05:51:53.937Z,661.53
2023-03-01T05:54:22.590Z,662.50
2023-03-01T05:56:49.398Z,664.28
2023-03-01T05:59:17.224Z,663.47
2023-03-01T06:01:44.439Z,664.40
2023-03-01T06:04:11.266Z,665.95
2023-03-01T06:06:38.706Z,659.72
2023-03-01T06:09:08.111Z,657.50
2023-03-01T06:11:35.992Z,657.92
2023-03-01T06:14:02.857Z,655.58
2023-03-01T06:16:29.995Z,662.20
2023-03-01T06:18:56.781Z,665.53
2023-03-01T06:21:23.451Z,665.93
2023-03-01T06:23:50.641Z,671.85
2023-03-01T06:26:17.293Z,668.22
2023-03-01T06:28:46.978Z,668.05
2023-03-01T06:31:13.935Z,664.67
2023-03-01T06:33:40.575Z,664.13
2023-03-01T06:36:07.911Z,664.15
2023-03-01T06:38:34.865Z,664.40
2023-03-01T06:41:02.200Z,668.33
2023-03-01T06:43:28.880Z,664.63
2023-03-01T06:45:55.548Z,673.47
2023-03-01T06:48:22.224Z,669.75
2023-03-01T06:50:48.900Z,666.40
2023-03-01T06:53:15.595Z,664.60
2023-03-01T06:55:42.647Z,662.87
2023-03-01T06:58:10.456Z,664.58
2023-03-01T07:00:37.106Z,668.25
2023-03-01T07:03:04.342Z,662.20
2023-03-01T07:05:31.697Z,666.60
2023-03-01T07:07:58.451Z,667.03
2023-03-01T07:10:25.245Z,663.58
2023-03-01T07:12:55.094Z,659.72
2023-03-01T07:15:21.715Z,664.92
2023-03-01T07:17:50.885Z,666.67
2023-03-01T07:20:18.890Z,667.17
2023-03-01T07:22:45.618Z,661.95
2023-03-01T07:25:12.359Z,666.92
2023-03-01T07:27:39.138Z,671.65
2023-03-01T07:30:06.459Z,670.70
2023-03-01T07:32:33.126Z,669.92
2023-03-01T07:34:59.932Z,673.35
2023-03-01T07:37:26.622Z,671.13
2023-03-01T07:39:53.268Z,674.17
2023-03-01T07:42:19.869Z,671.92
2023-03-01T07:44:46.459Z,672.85
2023-03-01T07:47:13.117Z,671.50
2023-03-01T07:49:39.710Z,667.70
2023-03-01T07:52:06.374Z,663.92
2023-03-01T07:54:33.048Z,667.60
2023-03-01T07:56:59.705Z,666.45
2023-03-01T07:59:29.920Z,664.93
2023-03-01T08:01:58.192Z,665.27
2023-03-01T08:04:27.503Z,665.90
2023-03-01T08:06:55.403Z,659.35
2023-03-01T08:09:22.633Z,660.53
2023-03-01T08:11:49.370Z,654.60
2023-03-01T08:14:16.087Z,658.78
2023-03-01T08:16:42.941Z,656.40
2023-03-01T08:19:12.395Z,660.85
2023-03-01T08:21:39.261Z,655.65
2023-03-01T08:24:07.733Z,653.03
2023-03-01T08:26:35.205Z,654.83
2023-03-01T08:29:02.360Z,651.35
2023-03-01T08:31:36.503Z,652.33
2023-03-01T08:34:06.458Z,651.95
2023-03-01T08:36:38.856Z,653.20
2023-03-01T08:39:06.066Z,660.17
2023-03-01T08:41:32.858Z,655.67
2023-03-01T08:44:00.134Z,654.13
2023-03-01T08:46:35.320Z,652.80
2023-03-01T08:49:13.013Z,655.15
2023-03-01T08:51:40.445Z,652.50
2023-03-01T08:54:11.912Z,650.97
2023-03-01T08:56:38.921Z,650.63
2023-03-01T09:01:32.370Z,656.42
2023-03-01T09:03:59.195Z,658.67
2023-03-01T09:06:26.070Z,657.60
2023-03-01T09:08:52.840Z,655.70
2023-03-01T09:11:22.147Z,652.95
2023-03-01T09:13:49.674Z,654.50
2023-03-01T09:16:18.698Z,648.92
2023-03-01T09:18:46.143Z,653.47
2023-03-01T09:21:15.893Z,651.47
2023-03-01T09:23:45.385Z,652.00
2023-03-01T09:26:15.510Z,652.63
2023-03-01T09:28:42.120Z,653.53
2023-03-01T09:31:09.430Z,658.67
2023-03-01T09:33:36.160Z,658.03
2023-03-01T09:36:06.089Z,652.73
2023-03-01T09:38:32.952Z,656.20
2023-03-01T09:41:00.704Z,650.78
2023-03-01T09:43:56.761Z,649.10
2023-03-01T09:46:25.713Z,657.03
2023-03-01T09:49:21.058Z,657.22
2023-03-01T09:51:57.477Z,654.35
2023-03-01T09:54:24.446Z,650.65
2023-03-01T09:57:12.656Z,650.10
2023-03-01T09:59:48.281Z,654.85
2023-03-01T10:02:36.222Z,656.45
2023-03-01T10:05:40.193Z,654.05
2023-03-01T10:08:06.804Z,660.38
2023-03-01T10:10:38.400Z,657.70
2023-03-01T10:13:11.387Z,662.05
2023-03-01T10:15:45.542Z,665.53
2023-03-01T10:18:21.400Z,657.85
2023-03-01T10:21:02.247Z,663.75
2023-03-01T10:23:32.371Z,662.22
2023-03-01T10:26:36.677Z,662.72
2023-03-01T10:29:11.606Z,668.80
2023-03-01T10:31:40.235Z,665.67
2023-03-01T10:34:22.276Z,666.03
2023-03-01T10:36:51.983Z,665.13
2023-03-01T10:39:24.663Z,664.22
2023-03-01T10:41:58.716Z,662.58
2023-03-01T10:44:42.209Z,659.63
2023-03-01T10:47:14.192Z,653.17
2023-03-01T10:50:04.191Z,656.70
2023-03-01T10:52:34.571Z,655.93
2023-03-01T10:55:21.801Z,659.92
2023-03-01T10:57:48.530Z,663.45
2023-03-01T11:00:20.376Z,664.80
2023-03-01T11:02:50.537Z,665.50
2023-03-01T11:05:24.871Z,667.13
2023-03-01T11:07:57.349Z,668.03
2023-03-01T11:10:25.141Z,673.17
2023-03-01T11:12:53.879Z,672.92
2023-03-01T11:15:29.440Z,671.25
2023-03-01T11:18:08.968Z,678.47
2023-03-01T11:20:40.534Z,679.72
2023-03-01T11:23:13.179Z,676.00
2023-03-01T11:25:54.196Z,680.30
2023-03-01T11:28:23.244Z,674.00
2023-03-01T11:31:07.852Z,670.03
2023-03-01T11:34:00.744Z,671.95
2023-03-01T11:36:59.478Z,673.53
2023-03-01T11:39:31.901Z,680.55
2023-03-01T11:42:20.682Z,683.60
2023-03-01T11:44:50.730Z,679.72
2023-03-01T11:47:48.341Z,673.60
2023-03-01T11:50:25.543Z,674.53
2023-03-01T11:53:30.584Z,675.13
2023-03-01T11:56:16.612Z,686.65
2023-03-01T11:58:58.996Z,677.88
2023-03-01T12:01:45.956Z,701.30
2023-03-01T12:04:36.825Z,671.28
2023-03-01T12:07:20.864Z,680.30
2023-03-01T12:10:30.116Z,673.78
2023-03-01T12:13:28.414Z,673.17
2023-03-01T12:16:09.881Z,678.50
2023-03-01T12:19:02.961Z,675.83
2023-03-01T12:21:59.398Z,674.15
2023-03-01T12:24:41.296Z,675.88
2023-03-01T12:27:50.960Z,675.92
2023-03-01T12:30:59.417Z,677.65
2023-03-01T12:34:00.390Z,682.60
2023-03-01T12:37:05.900Z,684.90
2023-03-01T12:40:17.438Z,681.70
2023-03-01T12:43:02.255Z,680.90
2023-03-01T12:45:43.972Z,679.03
2023-03-01T12:48:35.556Z,682.97
2023-03-01T12:51:14.958Z,680.83
2023-03-01T12:53:53.420Z,684.10
2023-03-01T12:56:26.199Z,691.90
2023-03-01T12:59:00.437Z,691.67
2023-03-01T13:01:32.129Z,693.37
2023-03-01T13:04:17.552Z,693.28
2023-03-01T13:06:56.162Z,691.28
2023-03-01T13:09:31.636Z,693.00
2023-03-01T13:11:58.731Z,684.58
2023-03-01T13:14:25.419Z,694.08
2023-03-01T13:16:55.660Z,695.78
2023-03-01T13:19:24.959Z,691.47
2023-03-01T13:21:57.484Z,691.78
2023-03-01T13:24:43.718Z,691.05
2023-03-01T13:27:23.656Z,689.28
2023-03-01T13:29:53.204Z,690.83
2023-03-01T13:32:43.041Z,690.15
2023-03-01T13:35:17.590Z,690.53
2023-03-01T13:37:45.383Z,691.05
2023-03-01T13:40:19.388Z,691.65
2023-03-01T13:43:04.196Z,689.30
2023-03-01T13:45:41.466Z,681.58
2023-03-01T13:48:24.403Z,684.37
2023-03-01T13:50:59.673Z,680.03
2023-03-01T13:53:29.936Z,682.65
2023-03-01T13:56:00.988Z,684.38
2023-03-01T13:58:33.444Z,681.05
2023-03-01T14:01:09.437Z,682.00
2023-03-01T14:03:42.740Z,681.95
2023-03-01T14:06:16.844Z,683.45
2023-03-01T14:08:46.746Z,681.15
2023-03-01T14:11:26.181Z,682.22
2023-03-01T14:14:11.671Z,683.47
2023-03-01T14:16:59.771Z,676.27
2023-03-01T14:19:33.401Z,676.65
2023-03-01T14:22:23.113Z,673.80
2023-03-01T14:24:53.254Z,682.10
2023-03-01T14:27:20.492Z,679.42
2023-03-01T14:30:02.490Z,679.78
2023-03-01T14:32:31.802Z,684.10
2023-03-01T14:34:59.982Z,680.08
2023-03-01T14:37:35.614Z,677.83
2023-03-01T14:40:05.018Z,678.05
2023-03-01T14:42:37.980Z,678.28
2023-03-01T14:45:07.353Z,670.35
2023-03-01T14:47:37.157Z,669.47
2023-03-01T14:50:11.624Z,674.50
2023-03-01T14:52:45.582Z,680.58
2023-03-01T14:55:26.623Z,674.05
2023-03-01T14:57:53.711Z,672.35
2023-03-01T15:00:27.035Z,674.33
2023-03-01T15:02:55.324Z,677.47
2023-03-01T15:05:30.773Z,676.87
2023-03-01T15:08:02.835Z,684.67
2023-03-01T15:10:32.787Z,680.97
2023-03-01T15:13:22.625Z,680.30
2023-03-01T15:15:52.211Z,681.10
2023-03-01T15:18:27.613Z,690.88
2023-03-01T15:20:55.026Z,699.38
2023-03-01T15:23:27.228Z,758.20
2023-03-01T15:25:58.850Z,749.05
2023-03-01T15:28:32.467Z,706.88
2023-03-01T15:31:23.386Z,716.55
2023-03-01T15:33:50.483Z,725.35
2023-03-01T15:36:34.442Z,731.08
2023-03-01T15:39:02.293Z,728.53
2023-03-01T15:41:32.661Z,730.35
2023-03-01T15:44:01.128Z,732.60
2023-03-01T15:46:35.197Z,744.03
2023-03-01T15:49:05.857Z,734.63
2023-03-01T15:51:35.701Z,742.30
2023-03-01T15:54:18.414Z,752.43
2023-03-01T15:56:45.433Z,759.60
2023-03-01T15:59:14.906Z,751.07
2023-03-01T16:01:42.505Z,744.67
2023-03-01T16:04:17.181Z,759.65
2023-03-01T16:06:43.844Z,745.33
2023-03-01T16:09:10.419Z,744.28
2023-03-01T16:11:38.076Z,742.30
2023-03-01T16:14:04.852Z,737.65
2023-03-01T16:16:31.977Z,744.35
2023-03-01T16:18:58.783Z,731.05
2023-03-01T16:21:26.025Z,720.67
2023-03-01T16:23:53.506Z,726.47
2023-03-01T16:26:21.447Z,707.70
2023-03-01T16:28:48.522Z,707.88
2023-03-01T16:31:19.561Z,697.37
2023-03-01T16:33:50.536Z,686.75
2023-03-01T16:36:19.356Z,681.00
2023-03-01T16:38:46.500Z,682.00
2023-03-01T16:41:16.530Z,678.50
2023-03-01T16:43:44.038Z,679.63
2023-03-01T16:46:15.991Z,673.42
2023-03-01T16:48:43.060Z,675.33
2023-03-01T16:51:09.997Z,685.60
2023-03-01T16:53:37.684Z,670.55
2023-03-01T16:56:06.736Z,675.20
2023-03-01T16:58:33.428Z,671.20
2023-03-01T17:01:06.845Z,667.55
2023-03-01T17:03:33.563Z,668.83
2023-03-01T17:06:05.933Z,676.38
2023-03-01T17:08:32.928Z,667.40
2023-03-01T17:11:11.953Z,670.92
2023-03-01T17:13:39.166Z,673.10
2023-03-01T17:16:11.601Z,670.63
2023-03-01T17:18:39.005Z,672.92
2023-03-01T17:21:06.959Z,670.83
2023-03-01T17:23:35.758Z,666.28
2023-03-01T17:26:02.544Z,669.27
2023-03-01T17:28:32.586Z,669.95
2023-03-01T17:31:00.634Z,663.95
2023-03-01T17:33:27.374Z,668.15
2023-03-01T17:35:54.214Z,661.47
2023-03-01T17:38:21.104Z,664.97
2023-03-01T17:40:47.940Z,667.90
2023-03-01T17:43:16.539Z,680.85
2023-03-01T17:45:47.518Z,683.37
2023-03-01T17:48:15.336Z,685.58
2023-03-01T17:50:42.139Z,676.63
2023-03-01T17:53:10.057Z,672.45
2023-03-01T17:55:38.018Z,673.90
2023-03-01T17:58:06.414Z,683.75
2023-03-01T18:00:34.207Z,692.38
2023-03-01T18:03:00.962Z,678.20
2023-03-01T18:05:28.190Z,670.92
2023-03-01T18:07:54.846Z,674.78
2023-03-01T18:10:21.467Z,669.38
2023-03-01T18:12:48.226Z,673.97
2023-03-01T18:15:14.957Z,670.97
2023-03-01T18:17:41.552Z,670.67
2023-03-01T18:20:09.281Z,667.20
2023-03-01T18:22:35.947Z,670.42
2023-03-01T18:25:02.570Z,672.15
2023-03-01T18:27:29.196Z,666.10
2023-03-01T18:29:56.356Z,666.70
2023-03-01T18:32:23.807Z,672.70
2023-03-01T18:34:50.439Z,676.58
2023-03-01T18:37:18.056Z,674.95
2023-03-01T18:39:44.679Z,663.03
2023-03-01T18:42:11.342Z,665.90
2023-03-01T18:44:38.531Z,664.35
2023-03-01T18:47:05.183Z,663.28
2023-03-01T18:49:31.915Z,663.15
2023-03-01T18:51:58.896Z,663.03
2023-03-01T18:54:25.507Z,667.95
2023-03-01T18:56:52.135Z,668.60
2023-03-01T18:59:18.747Z,671.22
2023-03-01T19:01:45.474Z,673.60
2023-03-01T19:04:12.565Z,672.80
2023-03-01T19:06:39.305Z,669.22
2023-03-01T19:09:07.612Z,676.10
2023-03-01T19:11:37.528Z,672.22
2023-03-01T19:14:04.809Z,675.80
2023-03-01T19:16:33.411Z,674.33
2023-03-01T19:19:03.243Z,669.37
2023-03-01T19:21:32.290Z,670.33
2023-03-01T19:23:59.966Z,671.58
2023-03-01T19:26:28.078Z,675.45
2023-03-01T19:28:55.738Z,681.27
2023-03-01T19:31:25.873Z,673.67
2023-03-01T19:33:59.532Z,671.83
2023-03-01T19:36:35.093Z,674.15
2023-03-01T19:39:04.015Z,668.28
2023-03-01T19:41:31.210Z,667.03
2023-03-01T19:43:58.187Z,664.33
2023-03-01T19:46:25.324Z,672.58
2023-03-01T19:48:54.832Z,673.33
2023-03-01T19:51:21.743Z,669.80
2023-03-01T19:53:48.622Z,672.47
2023-03-01T19:56:15.278Z,675.30
2023-03-01T19:58:42.180Z,673.05
2023-03-01T20:01:16.972Z,672.22
2023-03-01T20:03:43.993Z,668.42
2023-03-01T20:06:14.941Z,668.00
2023-03-01T20:08:41.673Z,668.22
2023-03-01T20:11:10.751Z,664.80
2023-03-01T20:13:37.815Z,668.25
2023-03-01T20:16:05.401Z,659.88
2023-03-01T20:18:32.522Z,663.90
2023-03-01T20:21:00.059Z,672.22
2023-03-01T20:23:27.010Z,674.25
2023-03-01T20:26:03.600Z,673.63
2023-03-01T20:28:30.270Z,672.80
2023-03-01T20:31:03.817Z,676.25
2023-03-01T20:33:30.414Z,677.07
2023-03-01T20:35:57.050Z,674.83
2023-03-01T20:38:23.689Z,682.53
2023-03-01T20:40:50.291Z,679.63
2023-03-01T20:43:16.943Z,685.07
2023-03-01T20:45:43.585Z,691.63
2023-03-01T20:48:10.288Z,689.25
2023-03-01T20:50:40.849Z,688.53
2023-03-01T20:53:08.341Z,685.80
2023-03-01T20:55:35.153Z,693.95
2023-03-01T20:58:01.824Z,694.83
2023-03-01T21:00:29.281Z,693.15
2023-03-01T21:02:56.136Z,686.20
2023-03-01T21:05:23.492Z,684.38
2023-03-01T21:07:50.958Z,681.20
2023-03-01T21:10:17.848Z,690.00
2023-03-01T21:12:44.510Z,689.28
2023-03-01T21:15:15.102Z,687.97
2023-03-01T21:17:48.058Z,691.88
2023-03-01T21:20:14.748Z,694.95
2023-03-01T21:22:41.337Z,690.08
2023-03-01T21:25:08.577Z,691.67
2023-03-01T21:27:38.633Z,689.80
2023-03-01T21:30:06.045Z,690.10
2023-03-01T21:32:32.766Z,689.97
2023-03-01T21:34:59.546Z,693.42
2023-03-01T21:37:28.895Z,688.03
2023-03-01T21:39:56.984Z,680.10
2023-03-01T21:42:23.610Z,680.65
2023-03-01T21:44:50.214Z,685.33
2023-03-01T21:47:16.821Z,687.83
2023-03-01T21:49:43.488Z,690.50
2023-03-01T21:52:16.718Z,689.47
2023-03-01T21:54:44.041Z,694.00
2023-03-01T21:57:11.395Z,694.22
2023-03-01T21:59:39.116Z,696.25
2023-03-01T22:02:05.773Z,688.63
2023-03-01T22:04:32.390Z,695.00
2023-03-01T22:06:59.061Z,689.63
2023-03-01T22:09:25.915Z,687.57
2023-03-01T22:11:58.236Z,693.05
2023-03-01T22:14:26.350Z,690.88
2023-03-01T22:16:53.294Z,689.53
2023-03-01T22:19:20.816Z,687.80
2023-03-01T22:21:49.903Z,692.15
2023-03-01T22:24:25.831Z,692.88
2023-03-01T22:26:53.523Z,689.03
2023-03-01T22:29:24.141Z,688.53
2023-03-01T22:31:51.645Z,690.83
2023-03-01T22:34:18.684Z,691.15
2023-03-01T22:36:46.139Z,694.63
2023-03-01T22:39:15.095Z,687.90
2023-03-01T22:41:44.820Z,687.38
2023-03-01T22:44:17.470Z,687.97
2023-03-01T22:46:45.223Z,682.63
2023-03-01T22:49:12.390Z,680.33
2023-03-01T22:51:41.084Z,675.80
2023-03-01T22:54:09.105Z,672.75
2023-03-01T22:56:37.446Z,676.60
2023-03-01T22:59:08.654Z,672.78
2023-03-01T23:01:36.027Z,669.40
2023-03-01T23:04:02.945Z,667.88
2023-03-01T23:06:33.101Z,670.58
2023-03-01T23:09:02.624Z,667.80
2023-03-01T23:11:29.508Z,670.47
2023-03-01T23:13:56.543Z,673.53
2023-03-01T23:16:26.063Z,676.13
2023-03-01T23:18:58.965Z,676.90
2023-03-01T23:21:25.890Z,682.45
2023-03-01T23:23:55.027Z,683.42
2023-03-01T23:26:22.274Z,683.28
2023-03-01T23:28:50.745Z,688.10
2023-03-01T23:31:17.650Z,677.20
2023-03-01T23:33:45.648Z,681.75
2023-03-01T23:36:18.219Z,680.08
2023-03-01T23:38:46.503Z,676.38
2023-03-01T23:41:15.341Z,681.83
2023-03-01T23:43:49.777Z,679.72
2023-03-01T23:46:18.039Z,680.53
2023-03-01T23:48:45.533Z,681.97
2023-03-01T23:51:12.795Z,681.38
2023-03-01T23:53:54.812Z,689.13
2023-03-01T23:56:31.240Z,689.67
2023-03-01T23:59:01.303Z,692.90
